Bosque, NM (87006)

3:09 PM MST on January 31, 2015 (GMT -0700)
Belen | Change Station
CLOSE
Current Station
Airport
Location: Belen,
Elevation: 5194 ft
Nearby Weather Stations

Elev 5194 ft 34.65 °N, 106.83 °W | Updated 14 minutes ago

Overcast
Overcast
42 °F
Feels Like 39 °F
N
5
Wind Variable Wind from NE

Today
High -- | Low -- °F
--% Chance of Precip.
Yesterday
High -- | Low -- °F
Precip. -- in
7:05 AM 5:35 PM
Waxing Gibbous, 91% visible
Pressure 29.88 in
Visibility 10.0 miles
Clouds Scattered Clouds 1100 ft
Mostly Cloudy 1600 ft
Overcast 6000 ft
Windchill 39 °F
Dew Point 38 °F
Humidity 84%
Rainfall 0.10 in
Snow Depth Not available.
UV 1 out of 12
Pollen .50 out of 12
Air Quality Not available.
Flu Activity Not available.
METAR KE80 312155Z AUTO 05004KT 10SM SCT011 BKN016 OVC060 06/03 A2988 RMK AO2 T00570032

More Conditions Fewer Conditions

Pressure 29.88 in
Visibility 10.0 miles
Clouds Scattered Clouds 1100 ft
Mostly Cloudy 1600 ft
Overcast 6000 ft
Windchill 39 °F
Dew Point 38 °F
Humidity 84%
Rainfall 0.10 in
Snow Depth Not available.
UV 1 out of 12
Pollen .50 out of 12
Air Quality Not available.
Flu Activity Not available.
METAR KE80 312155Z AUTO 05004KT 10SM SCT011 BKN016 OVC060 06/03 A2988 RMK AO2 T00570032

More Conditions Fewer Conditions

Nowcast | as of 2:30 PM MST on January 31, 2015

Areas of light to moderate rain and snow will continue across portions of north central New Mexico through 4 PM. Light rain and snow will primarily impact areas along and just east of the Sangre de Cristo Mountains...including locales near Glorieta...Las Vegas... Cowles...Tres Ritos...Mora...Watrous...Wagon Mound...Cimarron... Raton...and the Raton Pass. Snow levels will generally range between 7000 and 8000 feet...and additional accumulations will generally be light around an inch or less. In addition to the precipitation... patchy fog will reduce visibilities below a half mile at times...even in areas where precipitation has waned. For the latest Road conditions visit N M roads dot com or dial 5 1 1.

×

10-Day Weather Forecast

Almanac

Astronomy

Jan. 31, 2015 Rise Set
Actual Time
Civil Twilight
Nautical Twilight
Astronomical Twilight
Moon
Length of Visible Light
Length of Day
Tomorrow will be .
, % of the Moon is Illuminated

Today's Extremes

State Highs State Lows

Community

WunderPhotos

Upload Photos

1,792,221 photos uploaded!

WunderBlogs® & News

Nearby

Air Quality

  Air Quality AQ Index Pollutant
Not available.

Snow Depth

Station Depth Elevation

Earthquake Activity

City Distance Mag. Time & Date
Minimum magnitude displayed is 2.5.

Coastal Water Temperatures

Place Temperature

Nearby Weather Stations